createdAt,value
2017-12-30T00:00:57.507Z,5.28
2017-12-30T00:01:57.441Z,5.12
2017-12-30T00:02:57.375Z,5.17
2017-12-30T00:03:57.310Z,5.30
2017-12-30T00:04:57.243Z,5.28
2017-12-30T00:05:57.178Z,5.23
2017-12-30T00:06:57.113Z,5.22
2017-12-30T00:07:57.048Z,5.30
2017-12-30T00:08:56.982Z,5.27
2017-12-30T00:09:56.917Z,5.19
2017-12-30T00:10:56.849Z,5.23
2017-12-30T00:11:56.785Z,5.09
2017-12-30T00:12:56.719Z,5.30
2017-12-30T00:13:56.653Z,5.14
2017-12-30T00:14:56.589Z,5.14
2017-12-30T00:15:56.523Z,5.13
2017-12-30T00:16:56.456Z,5.16
2017-12-30T00:17:56.392Z,5.16
2017-12-30T00:18:56.325Z,5.17
2017-12-30T00:19:56.260Z,5.12
2017-12-30T00:20:56.195Z,5.09
2017-12-30T00:21:56.130Z,5.14
2017-12-30T00:22:56.063Z,5.05
2017-12-30T00:23:55.997Z,5.13
2017-12-30T00:24:55.932Z,5.09
2017-12-30T00:25:55.867Z,5.12
2017-12-30T00:26:55.800Z,5.13
2017-12-30T00:27:55.736Z,5.19
2017-12-30T00:28:55.670Z,5.20
2017-12-30T00:29:55.604Z,5.22
2017-12-30T00:30:55.538Z,5.32
2017-12-30T00:31:55.473Z,5.34
2017-12-30T00:32:55.408Z,5.30
2017-12-30T00:33:55.344Z,5.19
2017-12-30T00:34:55.277Z,5.20
2017-12-30T00:35:55.212Z,5.19
2017-12-30T00:36:55.145Z,5.22
2017-12-30T00:37:55.081Z,5.16
2017-12-30T00:38:55.015Z,5.25
2017-12-30T00:39:54.949Z,5.16
2017-12-30T00:40:54.887Z,5.25
2017-12-30T00:41:54.820Z,5.31
2017-12-30T00:42:54.753Z,5.23
2017-12-30T00:43:54.691Z,5.35
2017-12-30T00:44:54.622Z,5.27
2017-12-30T00:45:54.559Z,5.30
2017-12-30T00:46:54.491Z,5.34
2017-12-30T00:47:54.427Z,5.28
2017-12-30T00:48:54.362Z,5.34
2017-12-30T00:49:54.296Z,5.35
2017-12-30T00:50:54.230Z,5.22
2017-12-30T00:51:54.164Z,5.25
2017-12-30T00:52:54.099Z,5.17
2017-12-30T00:53:54.034Z,5.13
2017-12-30T00:54:53.968Z,5.17
2017-12-30T00:55:53.903Z,5.19
2017-12-30T00:56:53.839Z,5.16
2017-12-30T00:57:53.773Z,5.13
2017-12-30T00:58:53.708Z,5.12
2017-12-30T00:59:53.643Z,5.13
2017-12-30T01:00:53.579Z,5.10
2017-12-30T01:01:53.511Z,5.13
2017-12-30T01:02:53.446Z,5.16
2017-12-30T01:03:53.379Z,5.13
2017-12-30T01:04:53.315Z,5.13
2017-12-30T01:05:53.250Z,5.10
2017-12-30T01:06:53.183Z,5.17
2017-12-30T01:07:53.119Z,5.13
2017-12-30T01:08:53.052Z,5.12
2017-12-30T01:09:52.989Z,5.12
2017-12-30T01:10:52.922Z,5.14
2017-12-30T01:11:52.858Z,5.19
2017-12-30T01:12:52.792Z,5.13
2017-12-30T01:13:52.727Z,5.07
2017-12-30T01:14:52.660Z,5.12
2017-12-30T01:15:52.594Z,5.09
2017-12-30T01:16:52.530Z,5.05
2017-12-30T01:17:52.467Z,5.12
2017-12-30T01:18:52.400Z,5.10
2017-12-30T01:19:52.333Z,5.13
2017-12-30T01:20:52.268Z,5.05
2017-12-30T01:21:52.202Z,5.16
2017-12-30T01:22:52.137Z,5.04
2017-12-30T01:23:52.072Z,5.12
2017-12-30T01:24:52.007Z,5.19
2017-12-30T01:25:51.941Z,5.14
2017-12-30T01:26:51.877Z,5.16
2017-12-30T01:27:51.810Z,5.22
2017-12-30T01:28:51.745Z,5.27
2017-12-30T01:29:51.681Z,5.25
2017-12-30T01:30:51.614Z,5.20
2017-12-30T01:31:51.549Z,5.12
2017-12-30T01:32:51.483Z,5.13
2017-12-30T01:33:51.418Z,5.07
2017-12-30T01:34:51.351Z,5.14
2017-12-30T01:35:51.287Z,5.13
2017-12-30T01:36:51.221Z,5.13
2017-12-30T01:37:51.156Z,5.12
2017-12-30T01:38:51.094Z,5.13
2017-12-30T01:39:51.025Z,5.14
2017-12-30T01:40:50.960Z,5.07
2017-12-30T01:41:50.895Z,5.13
2017-12-30T01:42:50.828Z,5.16
2017-12-30T01:43:50.763Z,5.19
2017-12-30T01:44:50.698Z,5.16
2017-12-30T01:45:50.633Z,5.09
2017-12-30T01:46:50.566Z,5.12
2017-12-30T01:47:50.501Z,5.12
2017-12-30T01:48:50.436Z,5.09
2017-12-30T01:49:50.372Z,5.13
2017-12-30T01:50:50.306Z,5.14
2017-12-30T01:51:50.240Z,5.12
2017-12-30T01:52:50.175Z,5.13
2017-12-30T01:53:50.110Z,5.28
2017-12-30T01:54:50.044Z,5.20
2017-12-30T01:55:49.979Z,5.28
2017-12-30T01:56:49.913Z,5.23
2017-12-30T01:57:49.849Z,5.31
2017-12-30T01:58:49.782Z,5.30
2017-12-30T01:59:49.717Z,5.25
2017-12-30T02:00:49.653Z,5.19
2017-12-30T02:01:49.588Z,5.32
2017-12-30T02:02:49.521Z,5.27
2017-12-30T02:03:49.456Z,5.22
2017-12-30T02:04:49.391Z,5.23
2017-12-30T02:05:49.326Z,5.31
2017-12-30T02:06:49.260Z,5.32
2017-12-30T02:07:49.197Z,5.43
2017-12-30T02:08:49.129Z,5.34
2017-12-30T02:09:49.065Z,5.34
2017-12-30T02:10:49.000Z,5.31
2017-12-30T02:11:48.933Z,5.27
2017-12-30T02:12:48.869Z,5.17
2017-12-30T02:13:48.804Z,5.28
2017-12-30T02:14:48.737Z,5.19
2017-12-30T02:15:48.671Z,5.16
2017-12-30T02:16:48.606Z,5.10
2017-12-30T02:17:48.542Z,5.17
2017-12-30T02:18:48.476Z,5.20
2017-12-30T02:19:48.411Z,5.14
2017-12-30T02:20:48.345Z,5.20
2017-12-30T02:21:48.281Z,5.17
2017-12-30T02:22:48.217Z,5.14
2017-12-30T02:23:48.150Z,5.19
2017-12-30T02:24:48.086Z,5.14
2017-12-30T02:25:48.019Z,5.12
2017-12-30T02:26:47.956Z,5.13
2017-12-30T02:27:47.890Z,5.09
2017-12-30T02:28:47.826Z,5.10
2017-12-30T02:29:47.758Z,5.17
2017-12-30T02:30:47.695Z,5.13
2017-12-30T02:31:47.628Z,5.04
2017-12-30T02:32:47.564Z,5.09
2017-12-30T02:33:47.498Z,4.96
2017-12-30T02:34:47.434Z,4.95
2017-12-30T02:35:47.368Z,5.13
2017-12-30T02:36:47.303Z,5.14
2017-12-30T02:37:47.240Z,5.14
2017-12-30T02:38:47.172Z,5.12
2017-12-30T02:39:47.111Z,5.10
2017-12-30T02:40:47.042Z,5.14
2017-12-30T02:41:46.977Z,5.17
2017-12-30T02:42:46.912Z,5.12
2017-12-30T02:43:46.847Z,5.05
2017-12-30T02:44:46.781Z,5.12
2017-12-30T02:45:46.719Z,5.01
2017-12-30T02:46:46.651Z,4.98
2017-12-30T02:47:46.587Z,4.99
2017-12-30T02:48:46.521Z,4.98
2017-12-30T02:49:46.457Z,5.01
2017-12-30T02:50:46.390Z,4.98
2017-12-30T02:51:46.324Z,4.92
2017-12-30T02:52:46.259Z,4.86
2017-12-30T02:53:46.193Z,4.96
2017-12-30T02:54:46.128Z,4.92
2017-12-30T02:55:46.061Z,4.98
2017-12-30T02:56:45.996Z,4.92
2017-12-30T02:57:45.930Z,4.98
2017-12-30T02:58:45.863Z,4.94
2017-12-30T02:59:45.800Z,4.92
2017-12-30T03:00:45.734Z,5.01
2017-12-30T03:01:45.668Z,4.94
2017-12-30T03:02:45.602Z,4.84
2017-12-30T03:03:45.539Z,4.92
2017-12-30T03:04:45.471Z,4.84
2017-12-30T03:05:45.409Z,4.84
2017-12-30T03:06:45.339Z,4.94
2017-12-30T03:07:45.276Z,4.83
2017-12-30T03:08:45.209Z,4.79
2017-12-30T03:09:45.145Z,4.79
2017-12-30T03:10:45.079Z,4.80
2017-12-30T03:11:45.013Z,4.86
2017-12-30T03:12:44.950Z,4.75
2017-12-30T03:13:44.883Z,4.79
2017-12-30T03:14:44.817Z,4.79
2017-12-30T03:15:44.751Z,4.80
2017-12-30T03:16:44.688Z,4.77
2017-12-30T03:17:44.637Z,4.80
2017-12-30T03:18:44.556Z,4.80
2017-12-30T03:19:44.490Z,4.80
2017-12-30T03:20:44.425Z,4.89
2017-12-30T03:21:44.360Z,4.79
2017-12-30T03:22:44.294Z,4.76
2017-12-30T03:23:44.230Z,4.73
2017-12-30T03:24:44.163Z,4.79
2017-12-30T03:25:44.098Z,4.65
2017-12-30T03:26:46.982Z,4.75
2017-12-30T03:27:43.966Z,4.69
2017-12-30T03:28:43.901Z,4.96
2017-12-30T03:29:43.837Z,4.95
2017-12-30T03:30:43.769Z,4.95
2017-12-30T03:31:43.704Z,4.96
2017-12-30T03:32:43.638Z,4.99
2017-12-30T03:33:43.573Z,4.88
2017-12-30T03:34:43.507Z,4.84
2017-12-30T03:35:43.441Z,4.92
2017-12-30T03:36:43.376Z,4.84
2017-12-30T03:37:43.313Z,4.89
2017-12-30T03:38:43.244Z,4.83
2017-12-30T03:39:43.179Z,4.79
2017-12-30T03:40:43.114Z,4.73
2017-12-30T03:41:43.048Z,4.76
2017-12-30T03:42:42.981Z,4.67
2017-12-30T03:43:42.915Z,4.67
2017-12-30T03:44:42.851Z,4.58
2017-12-30T03:45:42.785Z,4.58
2017-12-30T03:46:42.721Z,4.57
2017-12-30T03:47:42.655Z,4.55
2017-12-30T03:48:42.587Z,4.54
2017-12-30T03:49:42.522Z,4.54
2017-12-30T03:50:42.456Z,4.64
2017-12-30T03:51:42.390Z,4.59
2017-12-30T03:52:42.326Z,4.61
2017-12-30T03:53:42.260Z,4.57
2017-12-30T03:54:42.193Z,4.55
2017-12-30T03:55:42.129Z,4.57
2017-12-30T03:56:42.062Z,4.51
2017-12-30T03:57:41.996Z,4.55
2017-12-30T03:58:41.929Z,4.55
2017-12-30T03:59:41.864Z,4.57
2017-12-30T04:00:41.799Z,4.55
2017-12-30T04:01:41.733Z,4.70
2017-12-30T04:02:41.667Z,4.54
2017-12-30T04:03:41.601Z,4.57
2017-12-30T04:04:41.535Z,4.57
2017-12-30T04:05:41.471Z,4.57
2017-12-30T04:06:41.403Z,4.55
2017-12-30T04:07:41.337Z,4.55
2017-12-30T04:08:41.271Z,4.61
2017-12-30T04:09:41.207Z,4.64
2017-12-30T04:10:41.140Z,4.67
2017-12-30T04:11:41.074Z,4.59
2017-12-30T04:12:41.009Z,4.65
2017-12-30T04:13:40.942Z,4.52
2017-12-30T04:14:40.876Z,4.57
2017-12-30T04:15:40.831Z,4.54
2017-12-30T04:16:40.745Z,4.52
2017-12-30T04:17:40.680Z,4.52
2017-12-30T04:18:40.613Z,4.47
2017-12-30T04:19:40.548Z,4.46
2017-12-30T04:20:40.480Z,4.46
2017-12-30T04:21:40.416Z,4.37
2017-12-30T04:22:40.399Z,4.50
2017-12-30T04:23:40.285Z,4.39
2017-12-30T04:24:40.217Z,4.33
2017-12-30T04:25:40.153Z,4.40
2017-12-30T04:26:40.084Z,4.40
2017-12-30T04:27:40.021Z,4.40
2017-12-30T04:28:39.954Z,4.50
2017-12-30T04:29:39.888Z,4.37
2017-12-30T04:30:39.822Z,4.47
2017-12-30T04:31:39.756Z,4.50
2017-12-30T04:32:39.690Z,4.46
2017-12-30T04:33:39.625Z,4.52
2017-12-30T04:34:39.558Z,4.51
2017-12-30T04:35:39.493Z,4.44
2017-12-30T04:36:39.426Z,4.39
2017-12-30T04:37:39.361Z,4.42
2017-12-30T04:38:39.295Z,4.40
2017-12-30T04:39:39.229Z,4.44
2017-12-30T04:40:39.162Z,4.40
2017-12-30T04:41:39.099Z,4.37
2017-12-30T04:42:39.031Z,4.36
2017-12-30T04:43:38.965Z,4.36
2017-12-30T04:44:38.900Z,4.51
2017-12-30T04:45:38.834Z,4.44
2017-12-30T04:46:38.767Z,4.37
2017-12-30T04:47:38.702Z,4.47
2017-12-30T04:48:38.636Z,4.43
2017-12-30T04:49:38.589Z,4.52
2017-12-30T04:50:38.504Z,4.51
2017-12-30T04:51:38.439Z,4.50
2017-12-30T04:52:38.373Z,4.51
2017-12-30T04:53:38.308Z,4.59
2017-12-30T04:54:38.240Z,4.55
2017-12-30T04:55:38.175Z,4.61
2017-12-30T04:56:38.110Z,4.57
2017-12-30T04:57:38.044Z,4.64
2017-12-30T04:58:37.979Z,4.55
2017-12-30T04:59:37.915Z,4.54
2017-12-30T05:00:37.847Z,4.51
2017-12-30T05:01:37.781Z,4.65
2017-12-30T05:02:37.716Z,4.64
2017-12-30T05:03:37.656Z,4.64
2017-12-30T05:04:37.584Z,4.69
2017-12-30T05:05:37.518Z,4.79
2017-12-30T05:06:37.453Z,4.83
2017-12-30T05:07:37.388Z,4.76
2017-12-30T05:08:37.320Z,4.80
2017-12-30T05:09:37.255Z,4.83
2017-12-30T05:10:37.190Z,4.83
2017-12-30T05:11:37.124Z,4.88
2017-12-30T05:12:37.059Z,4.84
2017-12-30T05:13:36.993Z,4.88
2017-12-30T05:14:36.927Z,4.92
2017-12-30T05:15:36.862Z,4.88
2017-12-30T05:16:36.795Z,4.84
2017-12-30T05:17:36.731Z,4.84
2017-12-30T05:18:36.667Z,4.92
2017-12-30T05:19:36.599Z,4.94
2017-12-30T05:20:36.534Z,4.86
2017-12-30T05:21:36.469Z,4.86
2017-12-30T05:22:36.402Z,4.89
2017-12-30T05:23:36.339Z,4.80
2017-12-30T05:24:36.279Z,4.84
2017-12-30T05:25:36.206Z,4.80
2017-12-30T05:26:36.140Z,4.83
2017-12-30T05:27:36.092Z,4.95
2017-12-30T05:28:36.009Z,4.94
2017-12-30T05:29:35.942Z,4.98
2017-12-30T05:30:35.877Z,4.96
2017-12-30T05:31:35.811Z,4.99
2017-12-30T05:32:35.747Z,4.92
2017-12-30T05:33:35.680Z,4.92
2017-12-30T05:34:35.619Z,4.88
2017-12-30T05:35:35.550Z,4.89
2017-12-30T05:36:35.486Z,4.88
2017-12-30T05:37:35.420Z,4.91
2017-12-30T05:38:35.353Z,4.94
2017-12-30T05:39:35.288Z,5.01
2017-12-30T05:40:35.223Z,4.92
2017-12-30T05:41:35.157Z,4.98
2017-12-30T05:42:35.090Z,4.96
2017-12-30T05:43:35.025Z,4.99
2017-12-30T05:44:34.960Z,4.94
2017-12-30T05:45:34.894Z,4.94
2017-12-30T05:46:34.828Z,4.92
2017-12-30T05:47:34.761Z,4.95
2017-12-30T05:48:34.697Z,4.80
2017-12-30T05:49:34.632Z,4.84
2017-12-30T05:50:34.564Z,4.95
2017-12-30T05:51:34.500Z,4.92
2017-12-30T05:52:34.434Z,4.98
2017-12-30T05:53:34.369Z,4.96
2017-12-30T05:54:34.304Z,4.92
2017-12-30T05:55:34.237Z,4.96
2017-12-30T05:56:34.171Z,4.89
2017-12-30T05:57:34.111Z,4.84
2017-12-30T05:58:34.040Z,4.86
2017-12-30T05:59:33.975Z,4.80
2017-12-30T06:00:33.909Z,4.92
2017-12-30T06:01:33.843Z,4.89
2017-12-30T06:02:33.777Z,4.92
2017-12-30T06:03:33.712Z,4.98
2017-12-30T06:04:33.646Z,4.98
2017-12-30T06:05:33.579Z,4.92
2017-12-30T06:06:33.516Z,4.96
2017-12-30T06:07:33.448Z,4.94
2017-12-30T06:08:33.383Z,4.83
2017-12-30T06:09:33.317Z,4.89
2017-12-30T06:10:33.252Z,4.80
2017-12-30T06:11:33.185Z,4.83
2017-12-30T06:12:33.120Z,4.79
2017-12-30T06:13:33.054Z,4.73
2017-12-30T06:14:32.990Z,4.84
2017-12-30T06:15:32.923Z,4.76
2017-12-30T06:16:32.856Z,4.80
2017-12-30T06:17:32.790Z,4.72
2017-12-30T06:18:32.724Z,4.79
2017-12-30T06:19:32.659Z,4.86
2017-12-30T06:20:32.592Z,4.89
2017-12-30T06:21:32.526Z,4.94
2017-12-30T06:22:32.460Z,4.98
2017-12-30T06:23:32.395Z,4.92
2017-12-30T06:24:32.329Z,4.92
2017-12-30T06:25:32.264Z,4.84
2017-12-30T06:26:32.197Z,4.83
2017-12-30T06:27:32.132Z,4.83
2017-12-30T06:28:32.066Z,4.83
2017-12-30T06:29:32.000Z,4.77
2017-12-30T06:30:31.934Z,4.84
2017-12-30T06:31:31.869Z,4.77
2017-12-30T06:32:31.806Z,4.84
2017-12-30T06:33:31.739Z,4.80
2017-12-30T06:34:31.671Z,4.79
2017-12-30T06:35:31.605Z,4.69
2017-12-30T06:36:31.540Z,4.79
2017-12-30T06:37:31.474Z,4.84
2017-12-30T06:38:31.408Z,4.80
2017-12-30T06:39:31.343Z,4.80
2017-12-30T06:40:31.277Z,4.76
2017-12-30T06:41:31.212Z,4.84
2017-12-30T06:42:31.145Z,4.80
2017-12-30T06:43:31.079Z,4.79
2017-12-30T06:44:31.013Z,4.92
2017-12-30T06:45:30.948Z,4.89
2017-12-30T06:46:30.882Z,4.94
2017-12-30T06:47:30.817Z,4.92
2017-12-30T06:48:30.750Z,4.89
2017-12-30T06:49:30.752Z,4.91
2017-12-30T06:50:30.639Z,4.88
2017-12-30T06:51:30.552Z,4.96
2017-12-30T06:52:30.486Z,4.91
2017-12-30T06:53:30.423Z,4.95
2017-12-30T06:54:30.357Z,4.95
2017-12-30T06:55:30.296Z,4.86
2017-12-30T06:56:30.224Z,4.89
2017-12-30T06:57:30.160Z,4.84
2017-12-30T06:58:30.091Z,4.84
2017-12-30T06:59:30.029Z,4.84
2017-12-30T07:00:29.961Z,4.80
2017-12-30T07:01:29.895Z,4.79
2017-12-30T07:02:29.829Z,4.86
2017-12-30T07:03:29.764Z,4.88
2017-12-30T07:04:29.698Z,4.84
2017-12-30T07:05:29.631Z,4.88
2017-12-30T07:06:29.567Z,4.84
2017-12-30T07:07:29.499Z,4.83
2017-12-30T07:08:29.437Z,4.83
2017-12-30T07:09:29.369Z,4.88
2017-12-30T07:10:29.304Z,4.80
2017-12-30T07:11:29.238Z,4.83
2017-12-30T07:12:29.173Z,4.92
2017-12-30T07:13:29.109Z,4.83
2017-12-30T07:14:29.041Z,4.95
2017-12-30T07:15:28.977Z,4.94
2017-12-30T07:16:28.910Z,4.89
2017-12-30T07:17:28.846Z,4.91
2017-12-30T07:18:28.779Z,4.88
2017-12-30T07:19:28.716Z,4.88
2017-12-30T07:20:28.648Z,4.83
2017-12-30T07:21:28.584Z,4.84
2017-12-30T07:22:28.516Z,4.86
2017-12-30T07:23:28.450Z,4.86
2017-12-30T07:24:28.385Z,4.95
2017-12-30T07:25:28.320Z,4.91
2017-12-30T07:26:28.254Z,4.99
2017-12-30T07:27:28.189Z,4.86
2017-12-30T07:28:28.128Z,4.91
2017-12-30T07:29:28.059Z,4.95
2017-12-30T07:30:27.991Z,4.86
2017-12-30T07:31:27.926Z,4.92
2017-12-30T07:32:27.860Z,4.92
2017-12-30T07:33:27.795Z,4.92
2017-12-30T07:34:27.729Z,4.98
2017-12-30T07:35:27.664Z,5.04
2017-12-30T07:36:27.598Z,4.91
2017-12-30T07:37:27.533Z,5.05
2017-12-30T07:38:27.467Z,4.94
2017-12-30T07:39:27.402Z,4.96
2017-12-30T07:40:27.337Z,5.07
2017-12-30T07:41:27.270Z,5.05
2017-12-30T07:42:27.204Z,5.01
2017-12-30T07:43:27.138Z,5.01
2017-12-30T07:44:27.073Z,5.05
2017-12-30T07:45:27.008Z,5.10
2017-12-30T07:46:26.946Z,5.04
2017-12-30T07:47:26.876Z,5.17
2017-12-30T07:48:26.814Z,5.17
2017-12-30T07:49:26.744Z,5.14
2017-12-30T07:50:26.679Z,5.16
2017-12-30T07:51:26.613Z,5.14
2017-12-30T07:52:26.598Z,5.17
2017-12-30T07:53:26.481Z,5.13
2017-12-30T07:54:26.417Z,5.17
2017-12-30T07:55:26.352Z,5.23
2017-12-30T07:56:26.286Z,5.19
2017-12-30T07:57:26.220Z,5.27
2017-12-30T07:58:26.154Z,5.22
2017-12-30T07:59:26.088Z,5.28
2017-12-30T08:00:26.031Z,5.31
2017-12-30T08:01:25.958Z,5.31
2017-12-30T08:02:25.891Z,5.35
2017-12-30T08:03:25.828Z,5.34
2017-12-30T08:04:25.761Z,5.38
2017-12-30T08:05:25.695Z,5.37
2017-12-30T08:06:25.629Z,5.46
2017-12-30T08:07:25.564Z,5.35
2017-12-30T08:08:25.499Z,5.32
2017-12-30T08:09:25.437Z,5.45
2017-12-30T08:10:25.368Z,5.32
2017-12-30T08:11:25.302Z,5.37
2017-12-30T08:12:25.237Z,5.35
2017-12-30T08:13:25.172Z,5.38
2017-12-30T08:14:25.105Z,5.43
2017-12-30T08:15:25.039Z,5.38
2017-12-30T08:16:24.976Z,5.41
2017-12-30T08:17:24.915Z,5.41
2017-12-30T08:18:24.845Z,5.41
2017-12-30T08:19:24.778Z,5.45
2017-12-30T08:20:24.715Z,5.38
2017-12-30T08:21:24.648Z,5.45
2017-12-30T08:22:24.587Z,5.41
2017-12-30T08:23:24.517Z,5.45
2017-12-30T08:24:24.459Z,5.45
2017-12-30T08:25:24.388Z,5.45
2017-12-30T08:26:24.321Z,5.37
2017-12-30T08:27:24.257Z,5.41
2017-12-30T08:28:24.190Z,5.48
2017-12-30T08:29:24.125Z,5.53
2017-12-30T08:30:24.059Z,5.46
2017-12-30T08:31:23.995Z,5.50
2017-12-30T08:32:23.929Z,5.45
2017-12-30T08:33:23.864Z,5.48
2017-12-30T08:34:23.800Z,5.48
2017-12-30T08:35:23.733Z,5.52
2017-12-30T08:36:23.668Z,5.53
2017-12-30T08:37:23.620Z,5.57
2017-12-30T08:38:23.537Z,5.49
2017-12-30T08:39:23.472Z,5.55
2017-12-30T08:40:23.407Z,5.48
2017-12-30T08:41:23.341Z,5.50
2017-12-30T08:42:23.275Z,5.50
2017-12-30T08:43:23.209Z,5.59
2017-12-30T08:44:23.146Z,5.56
2017-12-30T08:45:23.079Z,5.60
2017-12-30T08:46:23.013Z,5.63
2017-12-30T08:47:22.951Z,5.57
2017-12-30T08:48:22.888Z,5.50
2017-12-30T08:49:22.819Z,5.59
2017-12-30T08:50:22.752Z,5.60
2017-12-30T08:51:22.689Z,5.60
2017-12-30T08:52:22.622Z,5.55
2017-12-30T08:53:22.558Z,5.53
2017-12-30T08:54:22.490Z,5.53
2017-12-30T08:55:22.427Z,5.59
2017-12-30T08:56:22.361Z,5.56
2017-12-30T08:57:22.297Z,5.63
2017-12-30T08:58:22.230Z,5.59
2017-12-30T08:59:22.165Z,5.59
2017-12-30T09:00:22.100Z,5.66
2017-12-30T09:01:22.036Z,5.67
2017-12-30T09:02:21.971Z,5.60
2017-12-30T09:03:21.904Z,5.64
2017-12-30T09:04:21.839Z,5.70
2017-12-30T09:05:21.774Z,5.64
2017-12-30T09:06:21.709Z,5.71
2017-12-30T09:07:21.641Z,5.68
2017-12-30T09:08:21.578Z,5.74
2017-12-30T09:09:21.513Z,5.56
2017-12-30T09:10:21.447Z,5.75
2017-12-30T09:11:21.384Z,5.77
2017-12-30T09:12:21.317Z,5.68
2017-12-30T09:13:21.252Z,5.73
2017-12-30T09:14:21.186Z,5.70
2017-12-30T09:15:21.121Z,5.70
2017-12-30T09:16:21.055Z,5.77
2017-12-30T09:17:20.991Z,5.82
2017-12-30T09:18:20.924Z,5.70
2017-12-30T09:19:20.862Z,5.74
2017-12-30T09:20:20.798Z,5.68
2017-12-30T09:21:20.730Z,5.71
2017-12-30T09:22:20.665Z,5.70
2017-12-30T09:23:20.600Z,5.73
2017-12-30T09:24:20.536Z,5.67
2017-12-30T09:25:20.471Z,5.74
2017-12-30T09:26:20.407Z,5.78
2017-12-30T09:27:20.340Z,5.75
2017-12-30T09:28:20.275Z,5.81
2017-12-30T09:29:20.210Z,5.81
2017-12-30T09:30:20.144Z,5.82
2017-12-30T09:31:20.080Z,5.89
2017-12-30T09:32:20.014Z,5.81
2017-12-30T09:33:19.950Z,5.74
2017-12-30T09:34:19.883Z,5.75
2017-12-30T09:35:19.820Z,5.78
2017-12-30T09:36:19.753Z,5.75
2017-12-30T09:37:19.688Z,5.78
2017-12-30T09:38:19.623Z,5.78
2017-12-30T09:39:19.558Z,5.81
2017-12-30T09:40:19.494Z,5.81
2017-12-30T09:41:19.428Z,5.78
2017-12-30T09:42:19.363Z,5.78
2017-12-30T09:43:19.298Z,5.91
2017-12-30T09:44:19.233Z,5.89
2017-12-30T09:45:19.167Z,5.95
2017-12-30T09:46:19.103Z,5.91
2017-12-30T09:47:19.037Z,5.82
2017-12-30T09:48:18.973Z,5.89
2017-12-30T09:49:18.908Z,5.95
2017-12-30T09:50:18.843Z,6.01
2017-12-30T09:51:18.777Z,6.00
2017-12-30T09:52:18.717Z,6.14
2017-12-30T09:53:18.648Z,6.18
2017-12-30T09:54:18.583Z,6.28
2017-12-30T09:55:18.518Z,6.26
2017-12-30T09:56:18.453Z,6.21
2017-12-30T09:57:18.389Z,6.28
2017-12-30T09:58:18.324Z,6.35
2017-12-30T09:59:18.258Z,6.40
2017-12-30T10:00:18.194Z,6.43
2017-12-30T10:01:18.130Z,6.43
2017-12-30T10:02:18.063Z,6.40
2017-12-30T10:03:17.999Z,6.33
2017-12-30T10:04:17.933Z,6.33
2017-12-30T10:05:17.870Z,6.40
2017-12-30T10:06:17.803Z,6.44
2017-12-30T10:07:17.740Z,6.51
2017-12-30T10:08:17.675Z,6.41
2017-12-30T10:09:17.610Z,6.53
2017-12-30T10:10:17.545Z,6.54
2017-12-30T10:11:17.479Z,6.58
2017-12-30T10:12:17.416Z,6.47
2017-12-30T10:13:17.351Z,6.63
2017-12-30T10:14:17.286Z,6.68
2017-12-30T10:15:17.222Z,6.69
2017-12-30T10:16:17.158Z,6.62
2017-12-30T10:17:17.093Z,6.69
2017-12-30T10:18:17.027Z,6.89
2017-12-30T10:19:16.963Z,6.68
2017-12-30T10:20:16.900Z,6.71
2017-12-30T10:21:16.834Z,6.68
2017-12-30T10:22:16.770Z,6.68
2017-12-30T10:23:16.710Z,6.72
2017-12-30T10:24:16.641Z,6.89
2017-12-30T10:25:16.576Z,6.95
2017-12-30T10:26:16.512Z,7.05
2017-12-30T10:27:16.447Z,6.97
2017-12-30T10:28:16.384Z,6.95
2017-12-30T10:29:16.319Z,7.08
2017-12-30T10:30:16.254Z,7.04
2017-12-30T10:31:16.190Z,7.08
2017-12-30T10:32:16.125Z,7.07
2017-12-30T10:33:16.061Z,6.97
2017-12-30T10:34:15.998Z,7.04
2017-12-30T10:35:15.932Z,6.98
2017-12-30T10:36:15.870Z,7.04
2017-12-30T10:37:15.817Z,6.95
2017-12-30T10:38:15.740Z,6.98
2017-12-30T10:39:15.676Z,7.01
2017-12-30T10:40:15.612Z,7.02
2017-12-30T10:41:15.547Z,6.95
2017-12-30T10:42:15.483Z,6.99
2017-12-30T10:43:15.418Z,7.02
2017-12-30T10:44:15.353Z,7.01
2017-12-30T10:45:15.291Z,6.94
2017-12-30T10:46:15.230Z,6.95
2017-12-30T10:47:15.162Z,7.01
2017-12-30T10:48:15.098Z,7.09
2017-12-30T10:49:15.033Z,7.05
2017-12-30T10:50:14.970Z,7.05
2017-12-30T10:51:14.904Z,7.05
2017-12-30T10:52:14.840Z,7.02
2017-12-30T10:53:14.777Z,7.12
2017-12-30T10:54:14.711Z,7.09
2017-12-30T10:55:14.651Z,7.08
2017-12-30T10:56:14.583Z,7.17
2017-12-30T10:57:14.520Z,7.15
2017-12-30T10:58:14.457Z,7.22
2017-12-30T10:59:14.434Z,7.20
2017-12-30T11:00:14.327Z,7.24
2017-12-30T11:01:14.262Z,7.22
2017-12-30T11:02:14.197Z,7.32
2017-12-30T11:03:14.135Z,7.38
2017-12-30T11:04:14.070Z,7.49
2017-12-30T11:05:14.008Z,7.66
2017-12-30T11:06:13.942Z,7.69
2017-12-30T11:07:13.878Z,7.74
2017-12-30T11:08:13.813Z,7.78
2017-12-30T11:09:13.750Z,7.79
2017-12-30T11:10:13.684Z,7.87
2017-12-30T11:11:13.621Z,7.99
2017-12-30T11:12:13.557Z,8.02
2017-12-30T11:13:13.495Z,8.04
2017-12-30T11:14:13.430Z,8.08
2017-12-30T11:15:13.367Z,8.08
2017-12-30T11:16:13.307Z,8.04
2017-12-30T11:17:13.240Z,7.96
2017-12-30T11:18:13.176Z,7.92
2017-12-30T11:19:13.112Z,7.94
2017-12-30T11:20:13.048Z,7.89
2017-12-30T11:21:12.985Z,8.02
2017-12-30T11:22:12.922Z,7.96
2017-12-30T11:23:12.859Z,8.07
2017-12-30T11:24:12.799Z,8.03
2017-12-30T11:25:12.731Z,7.97
2017-12-30T11:26:12.672Z,8.08
2017-12-30T11:27:12.604Z,8.11
2017-12-30T11:28:12.541Z,8.18
2017-12-30T11:29:12.476Z,8.15
2017-12-30T11:30:12.415Z,8.20
2017-12-30T11:31:12.351Z,8.25
2017-12-30T11:32:12.287Z,8.33
2017-12-30T11:33:12.224Z,8.33
2017-12-30T11:34:12.161Z,8.47
2017-12-30T11:35:12.097Z,8.25
2017-12-30T11:36:12.035Z,8.35
2017-12-30T11:37:11.972Z,8.42
2017-12-30T11:38:11.908Z,8.40
2017-12-30T11:39:11.849Z,8.50
2017-12-30T11:40:11.783Z,8.50
2017-12-30T11:41:11.718Z,8.51
2017-12-30T11:42:11.655Z,8.62
2017-12-30T11:43:11.594Z,8.60
2017-12-30T11:44:11.529Z,8.66
2017-12-30T11:45:11.468Z,8.68
2017-12-30T11:46:11.403Z,8.65
2017-12-30T11:47:11.340Z,8.71
2017-12-30T11:48:11.278Z,8.76
2017-12-30T11:49:11.216Z,8.81
2017-12-30T11:50:11.151Z,8.93
2017-12-30T11:51:11.088Z,8.91
2017-12-30T11:52:11.031Z,8.91
2017-12-30T11:53:10.963Z,8.94
2017-12-30T11:54:10.901Z,9.05
2017-12-30T11:55:10.837Z,9.10
2017-12-30T11:56:10.776Z,9.25
2017-12-30T11:57:10.712Z,9.30
2017-12-30T11:58:10.652Z,9.30
2017-12-30T11:59:10.585Z,9.25
2017-12-30T12:00:10.523Z,9.24
2017-12-30T12:01:10.460Z,9.34
2017-12-30T12:02:10.398Z,9.34
2017-12-30T12:03:10.336Z,9.34
2017-12-30T12:04:10.273Z,9.34
2017-12-30T12:05:10.211Z,9.38
2017-12-30T12:06:10.147Z,9.71
2017-12-30T12:07:10.084Z,9.94
2017-12-30T12:08:10.023Z,9.89
2017-12-30T12:09:09.962Z,9.91
2017-12-30T12:10:09.897Z,9.83
2017-12-30T12:11:09.875Z,9.81
2017-12-30T12:12:09.773Z,9.86
2017-12-30T12:13:09.710Z,9.76
2017-12-30T12:14:09.646Z,9.85
2017-12-30T12:15:09.586Z,9.76
2017-12-30T12:16:09.524Z,9.79
2017-12-30T12:17:09.461Z,9.96
2017-12-30T12:18:09.398Z,9.99
2017-12-30T12:19:09.337Z,9.94
2017-12-30T12:20:09.274Z,9.99
2017-12-30T12:21:09.210Z,10.15
2017-12-30T12:22:09.149Z,10.14
2017-12-30T12:23:09.086Z,10.25
2017-12-30T12:24:09.024Z,10.32
2017-12-30T12:25:08.964Z,10.33
2017-12-30T12:26:08.898Z,10.28
2017-12-30T12:27:08.838Z,10.39
2017-12-30T12:28:08.776Z,10.42
2017-12-30T12:29:08.713Z,10.37
2017-12-30T12:30:08.652Z,10.39
2017-12-30T12:31:08.589Z,10.46
2017-12-30T12:32:08.527Z,10.53
2017-12-30T12:33:08.466Z,10.56
2017-12-30T12:34:08.405Z,10.53
2017-12-30T12:35:08.340Z,10.37
2017-12-30T12:36:08.285Z,10.46
2017-12-30T12:37:08.217Z,10.53
2017-12-30T12:38:08.154Z,10.59
2017-12-30T12:39:08.092Z,10.71
2017-12-30T12:40:08.032Z,10.81
2017-12-30T12:41:07.969Z,10.76
2017-12-30T12:42:07.906Z,10.66
2017-12-30T12:43:07.844Z,10.65
2017-12-30T12:44:07.782Z,10.66
2017-12-30T12:45:07.720Z,10.52
2017-12-30T12:46:07.657Z,10.51
2017-12-30T12:47:07.594Z,10.60
2017-12-30T12:48:07.533Z,10.46
2017-12-30T12:49:07.471Z,10.47
2017-12-30T12:50:07.408Z,10.51
2017-12-30T12:51:07.347Z,10.55
2017-12-30T12:52:07.285Z,10.46
2017-12-30T12:53:07.224Z,10.43
2017-12-30T12:54:07.159Z,10.42
2017-12-30T12:55:07.098Z,10.42
2017-12-30T12:56:07.037Z,10.51
2017-12-30T12:57:06.975Z,10.53
2017-12-30T12:58:06.909Z,10.58
2017-12-30T12:59:06.847Z,10.53
2017-12-30T13:00:06.787Z,10.44
2017-12-30T13:01:06.724Z,10.60
2017-12-30T13:02:06.669Z,10.71
2017-12-30T13:03:06.598Z,10.71
2017-12-30T13:04:06.538Z,10.71
2017-12-30T13:05:06.475Z,10.66
2017-12-30T13:06:06.411Z,10.76
2017-12-30T13:07:06.350Z,10.73
2017-12-30T13:08:06.289Z,11.02
2017-12-30T13:09:06.226Z,11.06
2017-12-30T13:10:06.164Z,11.10
2017-12-30T13:11:06.151Z,11.02
2017-12-30T13:12:06.041Z,11.10
2017-12-30T13:13:05.977Z,11.03
2017-12-30T13:14:05.915Z,11.02
2017-12-30T13:15:05.852Z,11.02
2017-12-30T13:16:05.791Z,11.29